Time;durP1;ratioP1;P1;durP2;ratioP2;P2;SDS_P1;SDS_P2;PMS_P1;PMS_P2;Temp;Humidity;BMP_temperature;BMP_pressure;BME280_temperature;BME280_humidity;BME280_pressure;Samples;Min_cycle;Max_cycle;Signal;HPM_P1;HPM_P2
2023/05/10 00:08:12;;;;;;;8.53;5.87;;;10.00;85.90;;;;;;10455923;28;20221;-84
2023/05/10 00:13:14;;;;;;;5.17;4.17;;;9.80;78.70;;;;;;10452040;28;20642;-84
2023/05/10 00:18:17;;;;;;;10.40;4.83;;;9.90;82.50;;;;;;10453915;28;20221;-84
2023/05/10 00:23:19;;;;;;;6.10;4.37;;;9.80;78.40;;;;;;10455200;28;20199;-84
2023/05/10 00:28:22;;;;;;;8.77;4.63;;;10.00;87.60;;;;;;10452032;28;20245;-84
2023/05/10 00:33:25;;;;;;;6.43;5.50;;;9.90;86.90;;;;;;10453685;28;20199;-84
2023/05/10 00:38:27;;;;;;;7.13;4.13;;;9.90;83.20;;;;;;10435528;28;20250;-84
2023/05/10 00:43:29;;;;;;;4.70;3.90;;;10.00;89.70;;;;;;10412272;28;20285;-84
2023/05/10 00:48:32;;;;;;;7.60;4.80;;;10.10;91.90;;;;;;10413983;28;20584;-84
2023/05/10 00:53:35;;;;;;;7.90;5.37;;;10.00;79.00;;;;;;10452433;28;20202;-83
2023/05/10 00:58:40;;;;;;;5.37;3.63;;;10.20;77.50;;;;;;10452340;28;20203;-84
2023/05/10 01:03:43;;;;;;;5.63;4.47;;;10.20;86.50;;;;;;10443925;28;20207;-84
2023/05/10 01:08:46;;;;;;;6.87;4.47;;;10.50;82.90;;;;;;10417959;28;20246;-84
2023/05/10 01:13:55;;;;;;;11.70;5.33;;;10.50;73.40;;;;;;10451237;28;20205;-85
2023/05/10 01:18:58;;;;;;;8.30;6.40;;;10.60;72.80;;;;;;10451453;28;20206;-85
2023/05/10 01:24:32;;;;;;;3.40;3.03;;;10.50;73.20;;;;;;10449789;28;20206;-84
2023/05/10 01:29:52;;;;;;;15.97;6.10;;;10.30;89.00;;;;;;10449726;28;20248;-84
2023/05/10 01:35:39;;;;;;;14.07;5.97;;;10.20;81.20;;;;;;10441894;28;20565;-84
2023/05/10 01:40:47;;;;;;;4.53;3.70;;;10.20;81.00;;;;;;10369062;28;20677;-84
2023/05/10 01:46:04;;;;;;;6.33;5.17;;;10.20;86.50;;;;;;10394229;28;20300;-84
2023/05/10 01:51:09;;;;;;;8.17;5.10;;;10.00;84.90;;;;;;10430927;28;20247;-84
2023/05/10 01:56:12;;;;;;;9.03;3.83;;;9.90;80.80;;;;;;10408181;28;20262;-84
2023/05/10 02:01:16;;;;;;;7.17;4.40;;;9.70;82.80;;;;;;10407738;28;20357;-84
2023/05/10 02:06:21;;;;;;;6.27;4.43;;;9.60;82.60;;;;;;10441403;28;20212;-84
2023/05/10 02:11:26;;;;;;;4.20;3.80;;;9.50;84.90;;;;;;10376784;28;20830;-84
2023/05/10 02:16:30;;;;;;;7.20;5.07;;;9.50;88.00;;;;;;10383485;28;20204;-84
2023/05/10 02:21:35;;;;;;;5.77;4.80;;;9.40;83.10;;;;;;10383596;28;20641;-84
2023/05/10 02:26:39;;;;;;;7.87;4.67;;;9.20;85.10;;;;;;10418116;28;20207;-84
2023/05/10 02:31:43;;;;;;;9.10;5.97;;;9.00;86.40;;;;;;10428673;28;20226;-84
2023/05/10 02:36:46;;;;;;;2.97;2.57;;;8.80;85.60;;;;;;10409545;28;20675;-84
2023/05/10 02:41:49;;;;;;;7.47;5.70;;;9.00;91.00;;;;;;10414278;28;20796;-84
2023/05/10 02:46:52;;;;;;;8.50;5.57;;;9.00;86.00;;;;;;10416458;28;20263;-84
2023/05/10 02:52:00;;;;;;;7.37;4.77;;;9.00;91.30;;;;;;10409351;28;20890;-84
2023/05/10 02:57:05;;;;;;;4.93;4.20;;;8.90;87.80;;;;;;10415097;28;20259;-84
2023/05/10 03:02:08;;;;;;;7.20;4.40;;;8.70;92.00;;;;;;10415035;28;20212;-84
2023/05/10 03:07:11;;;;;;;6.57;5.20;;;8.50;90.60;;;;;;10414581;28;20623;-83
2023/05/10 03:12:33;;;;;;;4.93;3.77;;;8.40;91.90;;;;;;10446365;28;20308;-84
2023/05/10 03:17:47;;;;;;;6.50;4.83;;;8.40;90.70;;;;;;10447104;28;20259;-84
2023/05/10 03:22:55;;;;;;;7.17;5.03;;;8.50;93.00;;;;;;10413309;28;20754;-84
2023/05/10 03:28:01;;;;;;;7.90;5.27;;;8.60;94.50;;;;;;10413130;28;20281;-85
2023/05/10 03:33:06;;;;;;;4.97;4.10;;;8.70;92.50;;;;;;10413299;28;20208;-84
2023/05/10 03:38:12;;;;;;;8.10;5.10;;;8.70;95.10;;;;;;10411832;28;20267;-84
2023/05/10 03:43:15;;;;;;;6.73;4.27;;;8.50;90.60;;;;;;10442337;28;20235;-84
2023/05/10 03:48:18;;;;;;;6.60;4.70;;;8.40;92.70;;;;;;10451323;28;20224;-84
2023/05/10 03:53:23;;;;;;;7.83;5.23;;;8.30;91.20;;;;;;10411493;28;20212;-84
2023/05/10 03:58:25;;;;;;;10.40;4.50;;;8.30;91.50;;;;;;10413250;28;20231;-84
2023/05/10 04:03:28;;;;;;;6.90;3.80;;;8.60;95.30;;;;;;10415667;28;20251;-84
2023/05/10 04:08:31;;;;;;;5.00;4.47;;;8.60;95.00;;;;;;10411211;28;20224;-84
2023/05/10 04:13:34;;;;;;;8.67;5.80;;;8.60;93.60;;;;;;10410943;28;20257;-84
2023/05/10 04:18:37;;;;;;;8.30;4.83;;;8.70;93.00;;;;;;10410262;28;20739;-84
2023/05/10 04:23:40;;;;;;;10.43;5.97;;;8.80;93.20;;;;;;10457866;28;20367;-84
2023/05/10 04:28:42;;;;;;;6.07;4.57;;;8.80;91.90;;;;;;10451703;28;20695;-84
2023/05/10 04:33:45;;;;;;;8.53;4.63;;;8.90;92.40;;;;;;10420768;28;20617;-84
2023/05/10 04:38:47;;;;;;;8.70;5.10;;;8.90;93.00;;;;;;10430475;28;20217;-84
2023/05/10 04:43:50;;;;;;;8.67;5.37;;;9.30;92.00;;;;;;10451595;28;20280;-84
2023/05/10 04:48:52;;;;;;;3.13;2.83;;;9.30;92.60;;;;;;10423082;28;20239;-86
2023/05/10 04:53:55;;;;;;;7.73;4.87;;;9.50;96.50;;;;;;10409566;28;20218;-83
2023/05/10 04:59:07;;;;;;;7.23;3.57;;;9.90;93.70;;;;;;10408460;28;20758;-83
2023/05/10 05:04:10;;;;;;;9.43;4.33;;;10.10;96.20;;;;;;10408948;28;22650;-84
2023/05/10 05:09:12;;;;;;;9.77;6.20;;;10.50;91.60;;;;;;10410315;28;20318;-83
2023/05/10 05:14:15;;;;;;;9.40;6.13;;;10.40;84.90;;;;;;10438729;28;20272;-83
2023/05/10 05:19:17;;;;;;;9.10;4.73;;;10.70;90.30;;;;;;10411557;28;20231;-83
2023/05/10 05:24:20;;;;;;;6.93;4.73;;;10.90;86.00;;;;;;10409545;28;20313;-83
2023/05/10 05:29:22;;;;;;;2.80;2.50;;;11.00;85.50;;;;;;10376988;28;20251;-83
2023/05/10 05:34:25;;;;;;;3.53;3.10;;;11.30;91.40;;;;;;10380584;28;20199;-83
2023/05/10 05:39:28;;;;;;;9.97;6.13;;;11.70;90.10;;;;;;10446302;28;20199;-83
2023/05/10 05:44:30;;;;;;;6.43;3.50;;;11.80;83.00;;;;;;10426934;28;20644;-83
2023/05/10 05:49:33;;;;;;;3.60;3.20;;;11.80;84.50;;;;;;10407669;28;20301;-83
2023/05/10 05:54:35;;;;;;;7.20;3.73;;;12.20;86.50;;;;;;10383386;28;20279;-83
2023/05/10 05:59:43;;;;;;;30.07;5.77;;;12.70;83.40;;;;;;10411207;28;20286;-83
2023/05/10 06:04:46;;;;;;;5.60;4.70;;;12.80;73.20;;;;;;10426955;28;20245;-83
2023/05/10 06:09:49;;;;;;;6.23;3.00;;;;;;;;;;10416071;28;20266;-82
2023/05/10 06:14:51;;;;;;;8.63;3.37;;;13.10;81.80;;;;;;10411154;28;20215;-83
2023/05/10 06:19:54;;;;;;;10.10;4.67;;;13.20;77.40;;;;;;10437442;28;20230;-84
2023/05/10 06:24:56;;;;;;;7.03;4.13;;;13.30;69.40;;;;;;10421101;28;20243;-84
2023/05/10 06:29:59;;;;;;;5.13;4.40;;;13.60;75.50;;;;;;10416056;28;20664;-85
2023/05/10 06:35:14;;;;;;;19.17;5.77;;;13.60;72.40;;;;;;10424957;28;20251;-84
2023/05/10 06:40:17;;;;;;;8.17;4.40;;;13.70;69.60;;;;;;10434465;28;20265;-84
2023/05/10 06:45:20;;;;;;;9.83;3.97;;;14.10;69.40;;;;;;10419666;28;20262;-85
2023/05/10 06:50:23;;;;;;;10.20;4.57;;;14.30;62.00;;;;;;10414474;28;20656;-85
2023/05/10 06:55:26;;;;;;;5.83;3.97;;;14.40;57.00;;;;;;10415381;28;20246;-84
2023/05/10 07:00:28;;;;;;;9.23;4.40;;;14.60;53.90;;;;;;10415100;28;20242;-85
2023/05/10 07:05:31;;;;;;;8.83;4.57;;;14.70;51.70;;;;;;10414498;28;20816;-85
2023/05/10 07:10:33;;;;;;;5.10;4.00;;;14.70;50.80;;;;;;10413343;28;20324;-85
2023/05/10 07:15:36;;;;;;;7.20;3.90;;;15.00;49.60;;;;;;10414482;28;20263;-85
2023/05/10 07:20:38;;;;;;;8.30;3.60;;;15.10;49.90;;;;;;10413440;28;20817;-85
2023/05/10 07:25:41;;;;;;;9.67;3.63;;;15.40;48.10;;;;;;10412341;28;20266;-85
2023/05/10 07:30:43;;;;;;;9.00;4.13;;;15.60;47.30;;;;;;10412381;28;20802;-85
2023/05/10 07:35:46;;;;;;;4.60;3.87;;;15.80;45.90;;;;;;10412871;28;20667;-84
2023/05/10 07:40:49;;;;;;;5.57;3.57;;;16.00;45.80;;;;;;10413171;28;20757;-86
2023/05/10 07:45:51;;;;;;;5.73;4.27;;;16.10;43.10;;;;;;10413529;28;20242;-86
2023/05/10 07:50:57;;;;;;;4.10;3.10;;;16.20;43.00;;;;;;10412626;28;20247;-85
2023/05/10 07:56:24;;;;;;;6.33;4.37;;;16.40;41.10;;;;;;10410957;28;20243;-85
2023/05/10 08:01:31;;;;;;;7.60;3.77;;;16.50;41.00;;;;;;10412580;28;20269;-85
2023/05/10 08:06:33;;;;;;;13.30;4.40;;;16.60;38.90;;;;;;10394927;28;20238;-86
2023/05/10 08:11:36;;;;;;;5.33;4.63;;;16.60;38.90;;;;;;10412499;28;20255;-85
2023/05/10 08:16:39;;;;;;;5.37;3.47;;;16.70;37.00;;;;;;10410906;28;20203;-85
2023/05/10 08:21:42;;;;;;;5.57;3.73;;;16.80;40.20;;;;;;10409867;28;20246;-85
2023/05/10 08:26:44;;;;;;;4.47;3.20;;;16.90;38.00;;;;;;10411139;28;20653;-85
2023/05/10 08:31:47;;;;;;;6.83;3.67;;;17.00;39.00;;;;;;10411544;28;20650;-86
2023/05/10 08:36:49;;;;;;;6.00;4.10;;;17.10;38.20;;;;;;10411533;28;20241;-85
2023/05/10 08:41:55;;;;;;;9.67;4.63;;;17.20;35.90;;;;;;10393995;28;20324;-85
2023/05/10 08:47:01;;;;;;;8.67;4.53;;;17.20;35.00;;;;;;10409067;28;20596;-84
2023/05/10 08:52:06;;;;;;;6.03;3.47;;;17.30;31.40;;;;;;10392608;28;20648;-84
2023/05/10 08:57:08;;;;;;;19.57;4.20;;;17.60;32.50;;;;;;10409912;28;20236;-84
2023/05/10 09:02:13;;;;;;;4.73;3.60;;;17.70;35.70;;;;;;10409559;28;20644;-84
2023/05/10 09:07:20;;;;;;;26.83;4.33;;;17.80;34.30;;;;;;10409290;28;20203;-84
2023/05/10 09:12:23;;;;;;;7.43;3.50;;;17.90;37.00;;;;;;10409147;28;20305;-84
2023/05/10 09:17:27;;;;;;;5.17;4.30;;;18.00;33.00;;;;;;10408583;28;20689;-84
2023/05/10 09:22:34;;;;;;;7.83;2.77;;;18.10;35.00;;;;;;10408977;28;20238;-85
2023/05/10 09:27:38;;;;;;;6.00;3.40;;;18.00;30.00;;;;;;10408549;28;20235;-82
2023/05/10 09:32:42;;;;;;;6.07;3.70;;;18.20;32.90;;;;;;10409321;28;20259;-83
2023/05/10 09:37:50;;;;;;;6.70;3.03;;;18.20;30.90;;;;;;10408646;28;20207;-83
2023/05/10 09:42:58;;;;;;;9.70;4.80;;;18.20;29.10;;;;;;10390487;28;20261;-83
2023/05/10 09:48:02;;;;;;;11.00;3.63;;;18.20;27.30;;;;;;10407138;28;20683;-82
2023/05/10 09:53:05;;;;;;;2.47;2.27;;;18.10;28.30;;;;;;10408058;28;20308;-82
2023/05/10 09:58:10;;;;;;;5.23;3.53;;;18.00;29.70;;;;;;10406440;28;20206;-85
2023/05/10 10:03:15;;;;;;;12.13;3.00;;;18.00;30.80;;;;;;10408475;28;20202;-85
2023/05/10 10:08:18;;;;;;;8.67;2.90;;;18.10;26.40;;;;;;10404778;28;20239;-84
2023/05/10 10:13:20;;;;;;;12.37;3.57;;;18.10;29.80;;;;;;10405605;28;20690;-85
2023/05/10 10:18:26;;;;;;;9.93;2.90;;;18.20;29.20;;;;;;10405256;28;20693;-85
2023/05/10 10:23:29;;;;;;;12.17;2.80;;;18.10;30.20;;;;;;10405712;28;20236;-85
2023/05/10 10:28:51;;;;;;;6.17;2.70;;;18.20;29.30;;;;;;10406649;28;20680;-84
2023/05/10 10:34:03;;;;;;;4.87;2.40;;;18.10;29.80;;;;;;10407226;28;20254;-82
2023/05/10 10:39:10;;;;;;;9.10;3.10;;;18.20;30.00;;;;;;10406400;28;20227;-83
2023/05/10 10:44:24;;;;;;;9.27;2.90;;;18.20;29.30;;;;;;10404272;28;20702;-83
2023/05/10 10:49:27;;;;;;;3.53;2.87;;;18.10;26.00;;;;;;10407356;28;20297;-83
2023/05/10 10:54:32;;;;;;;4.67;3.90;;;18.10;29.80;;;;;;10405104;28;20255;-83
2023/05/10 10:59:35;;;;;;;4.17;2.73;;;18.10;26.60;;;;;;10406435;28;20744;-84
2023/05/10 11:04:46;;;;;;;5.00;2.67;;;18.10;27.20;;;;;;10413519;28;20608;-84
2023/05/10 11:09:49;;;;;;;7.43;2.53;;;18.10;29.20;;;;;;10413152;28;20243;-82
2023/05/10 11:14:51;;;;;;;7.43;3.17;;;18.20;26.70;;;;;;10413195;28;20233;-82
2023/05/10 11:20:13;;;;;;;3.90;2.33;;;18.30;26.80;;;;;;10386673;28;20232;-82
2023/05/10 11:25:16;;;;;;;13.90;3.20;;;18.30;26.30;;;;;;10398512;28;20223;-82
2023/05/10 11:30:19;;;;;;;5.43;3.63;;;18.30;26.10;;;;;;10413390;28;20312;-82
2023/05/10 11:35:22;;;;;;;3.17;2.57;;;18.30;27.20;;;;;;10409901;28;20854;-82
2023/05/10 11:40:26;;;;;;;3.07;2.60;;;18.30;28.00;;;;;;10412039;28;20723;-82
2023/05/10 11:45:29;;;;;;;3.33;2.70;;;18.50;25.50;;;;;;10412722;28;20262;-82
2023/05/10 11:50:32;;;;;;;3.17;2.70;;;18.50;27.60;;;;;;10412809;28;20289;-82
2023/05/10 11:55:35;;;;;;;3.17;2.47;;;18.40;24.90;;;;;;10412032;28;20605;-82
2023/05/10 12:00:37;;;;;;;7.87;3.00;;;18.30;27.10;;;;;;10411230;28;20755;-82
2023/05/10 12:05:41;;;;;;;13.27;3.37;;;18.40;26.20;;;;;;10411891;28;20293;-82
2023/05/10 12:10:44;;;;;;;3.80;2.83;;;18.30;26.00;;;;;;10410860;28;20250;-82
2023/05/10 12:15:47;;;;;;;15.10;3.93;;;18.40;24.30;;;;;;10410876;28;20698;-82
2023/05/10 12:20:52;;;;;;;3.00;2.70;;;18.40;23.70;;;;;;10409993;28;20204;-82
2023/05/10 12:26:02;;;;;;;3.80;2.27;;;18.40;26.20;;;;;;10408903;28;20679;-82
2023/05/10 12:31:05;;;;;;;10.37;3.20;;;18.40;22.60;;;;;;10410104;28;20313;-82
2023/05/10 12:36:13;;;;;;;8.90;2.30;;;18.30;23.60;;;;;;10391609;28;20227;-84
2023/05/10 12:41:17;;;;;;;3.23;2.47;;;18.30;24.60;;;;;;10408881;28;20716;-84
2023/05/10 12:46:20;;;;;;;6.43;3.23;;;18.50;27.00;;;;;;10410042;28;20231;-83
2023/05/10 12:51:23;;;;;;;4.53;3.40;;;18.50;23.80;;;;;;10408926;28;20263;-84
2023/05/10 12:56:25;;;;;;;5.97;2.80;;;18.60;25.70;;;;;;10408961;28;20234;-82
2023/05/10 13:01:28;;;;;;;11.40;3.17;;;18.60;27.00;;;;;;10407802;28;20231;-82
2023/05/10 13:06:31;;;;;;;6.33;2.87;;;18.50;25.90;;;;;;10401938;28;20254;-82
2023/05/10 13:11:33;;;;;;;11.97;3.00;;;18.50;26.30;;;;;;10409389;28;20247;-82
2023/05/10 13:16:36;;;;;;;6.77;2.93;;;18.60;25.10;;;;;;10412706;28;20229;-82
2023/05/10 13:21:40;;;;;;;3.27;2.57;;;18.50;26.20;;;;;;10407066;28;20237;-82
2023/05/10 13:26:43;;;;;;;10.87;2.17;;;18.60;24.40;;;;;;10408642;28;20204;-82
2023/05/10 13:31:46;;;;;;;4.67;3.00;;;18.70;27.20;;;;;;10407600;28;20689;-82
2023/05/10 13:36:48;;;;;;;2.70;2.13;;;18.60;23.00;;;;;;10408014;28;20242;-82
2023/05/10 13:41:51;;;;;;;4.90;2.70;;;18.70;26.60;;;;;;10406915;28;20611;-82
2023/05/10 13:46:56;;;;;;;6.40;2.90;;;18.70;26.90;;;;;;10406898;28;20200;-82
2023/05/10 13:52:06;;;;;;;7.43;3.90;;;18.50;26.10;;;;;;10438055;28;20320;-83
2023/05/10 13:57:11;;;;;;;4.23;2.50;;;18.40;26.40;;;;;;10406860;28;20683;-83
2023/05/10 14:02:13;;;;;;;5.80;2.37;;;18.40;25.80;;;;;;10408700;28;20250;-84
2023/05/10 14:07:17;;;;;;;3.00;2.40;;;18.60;25.50;;;;;;10406466;28;20235;-84
2023/05/10 14:12:20;;;;;;;2.70;1.63;;;18.70;27.90;;;;;;10407369;28;20299;-86
2023/05/10 14:17:22;;;;;;;4.50;2.60;;;18.60;27.80;;;;;;10406445;28;20229;-85
2023/05/10 14:22:25;;;;;;;2.80;2.53;;;18.60;26.70;;;;;;10405903;28;20256;-85
2023/05/10 14:27:27;;;;;;;4.40;3.03;;;18.50;29.70;;;;;;10407434;28;20237;-84
2023/05/10 14:32:31;;;;;;;3.80;2.47;;;18.50;27.80;;;;;;10407319;28;20270;-84
2023/05/10 14:37:34;;;;;;;4.17;2.67;;;18.70;28.70;;;;;;10412884;28;20233;-84
2023/05/10 14:42:37;;;;;;;5.17;2.50;;;18.70;27.30;;;;;;10414507;28;20254;-84
2023/05/10 14:47:39;;;;;;;10.20;2.27;;;18.80;27.70;;;;;;10412378;28;20258;-84
2023/05/10 14:52:42;;;;;;;9.43;3.10;;;18.80;28.20;;;;;;10411678;28;20259;-84
2023/05/10 14:57:47;;;;;;;2.83;2.47;;;18.70;28.60;;;;;;10445648;28;20243;-84
2023/05/10 15:02:49;;;;;;;7.13;3.23;;;18.70;27.50;;;;;;10413384;28;20231;-84
2023/05/10 15:07:52;;;;;;;5.73;3.10;;;18.80;28.50;;;;;;10410702;28;20674;-84
2023/05/10 15:12:55;;;;;;;2.93;2.43;;;18.80;28.50;;;;;;10419598;28;20686;-84
2023/05/10 15:17:58;;;;;;;4.00;3.53;;;18.90;28.80;;;;;;10428515;28;20291;-84
2023/05/10 15:23:01;;;;;;;3.07;2.70;;;18.70;26.50;;;;;;10411889;28;20289;-84
2023/05/10 15:28:04;;;;;;;4.67;3.17;;;18.60;30.00;;;;;;10406246;28;20242;-84
2023/05/10 15:33:08;;;;;;;6.77;3.70;;;18.50;28.40;;;;;;10410869;28;20411;-84
2023/05/10 15:38:11;;;;;;;6.90;2.77;;;18.30;28.10;;;;;;10409477;28;20261;-84
2023/05/10 15:43:15;;;;;;;6.17;3.10;;;18.40;29.00;;;;;;10401419;28;20263;-84
2023/05/10 15:48:17;;;;;;;5.23;3.23;;;18.40;26.60;;;;;;10401111;28;20258;-85
2023/05/10 15:53:20;;;;;;;4.27;3.50;;;18.30;27.80;;;;;;10412591;28;20247;-85
2023/05/10 15:58:22;;;;;;;5.73;3.00;;;18.40;27.20;;;;;;10404087;28;20239;-83
2023/05/10 16:03:25;;;;;;;7.77;3.07;;;18.60;28.10;;;;;;10409037;28;20289;-84
2023/05/10 16:08:32;;;;;;;3.53;3.07;;;18.90;28.40;;;;;;10436602;28;20636;-83
2023/05/10 16:13:34;;;;;;;6.50;3.53;;;19.20;26.50;;;;;;10406297;28;20251;-84
2023/05/10 16:18:37;;;;;;;4.03;2.93;;;19.20;26.30;;;;;;10418081;28;20251;-83
2023/05/10 16:23:40;;;;;;;12.55;3.90;;;19.60;27.00;;;;;;10407028;28;20239;-84
2023/05/10 16:28:42;;;;;;;4.27;3.40;;;19.70;25.80;;;;;;10404678;28;20243;-83
2023/05/10 16:33:45;;;;;;;5.07;2.70;;;19.90;26.80;;;;;;10407332;28;20263;-86
2023/05/10 16:38:48;;;;;;;5.30;3.35;;;19.90;26.00;;;;;;10413925;28;20254;-85
2023/05/10 16:43:50;;;;;;;3.33;3.00;;;20.00;26.10;;;;;;10403695;28;20274;-83
2023/05/10 16:48:53;;;;;;;4.80;3.30;;;20.00;27.10;;;;;;10414670;28;20231;-95
2023/05/10 16:53:56;;;;;;;5.68;3.20;;;20.10;26.60;;;;;;10423204;28;20304;-87
2023/05/10 16:58:58;;;;;;;4.53;2.80;;;20.00;26.40;;;;;;10418554;28;20311;-88
2023/05/10 17:04:01;;;;;;;4.40;3.05;;;19.90;26.10;;;;;;10406458;28;20281;-83
2023/05/10 17:09:04;;;;;;;3.20;2.63;;;19.90;26.90;;;;;;10411252;28;20280;-84
2023/05/10 17:14:07;;;;;;;5.73;3.20;;;19.80;26.80;;;;;;10403014;28;20682;-85
2023/05/10 17:19:10;;;;;;;6.53;3.97;;;19.60;26.40;;;;;;10423168;28;20252;-85
2023/05/10 17:24:13;;;;;;;5.57;4.13;;;19.40;25.90;;;;;;10425114;28;20231;-84
2023/05/10 17:29:15;;;;;;;3.73;3.40;;;19.30;25.20;;;;;;10413621;28;20676;-83
2023/05/10 17:34:18;;;;;;;8.17;3.57;;;19.00;27.40;;;;;;10421420;28;20254;-84
2023/05/10 17:39:21;;;;;;;3.50;3.20;;;18.80;26.20;;;;;;10415053;28;20285;-83
2023/05/10 17:44:24;;;;;;;11.03;4.17;;;18.60;27.20;;;;;;10441582;28;20612;-87
2023/05/10 17:49:27;;;;;;;9.57;4.20;;;18.40;27.10;;;;;;10431870;28;20227;-85
2023/05/10 17:54:30;;;;;;;7.20;5.40;;;18.10;28.20;;;;;;10442871;28;20557;-86
2023/05/10 17:59:32;;;;;;;3.23;2.93;;;17.70;28.20;;;;;;10409913;28;20219;-86
2023/05/10 18:04:34;;;;;;;7.82;4.38;;;17.50;34.30;;;;;;10431566;28;20230;-85
2023/05/10 18:09:37;;;;;;;11.27;4.33;;;17.40;31.90;;;;;;10435952;28;20268;-85
2023/05/10 18:14:40;;;;;;;7.57;3.63;;;17.10;32.80;;;;;;10435272;28;20299;-85
2023/05/10 18:19:43;;;;;;;13.07;4.87;;;16.90;35.60;;;;;;10448025;28;20680;-85
2023/05/10 18:24:45;;;;;;;4.73;3.67;;;16.70;34.50;;;;;;10425122;28;20295;-84
2023/05/10 18:29:48;;;;;;;9.23;3.70;;;16.40;39.10;;;;;;10430126;28;20258;-85
2023/05/10 18:34:51;;;;;;;13.10;4.03;;;16.10;39.40;;;;;;10434507;28;20303;-86
2023/05/10 18:39:56;;;;;;;6.47;4.00;;;15.80;40.10;;;;;;10442864;28;20250;-84
2023/05/10 18:44:59;;;;;;;5.87;4.40;;;15.60;41.40;;;;;;10446733;28;20722;-85
2023/05/10 18:50:05;;;;;;;3.37;2.93;;;15.30;43.80;;;;;;10429061;28;20698;-85
2023/05/10 18:55:08;;;;;;;8.87;4.17;;;15.20;48.30;;;;;;10426405;28;20257;-84
2023/05/10 19:00:11;;;;;;;8.07;3.60;;;15.00;50.80;;;;;;10445429;28;20311;-83
2023/05/10 19:05:15;;;;;;;5.77;4.53;;;14.90;52.50;;;;;;10069779;28;10000524;-87
2023/05/10 19:10:18;;;;;;;12.37;4.17;;;14.70;52.90;;;;;;10422560;28;20633;-84
2023/05/10 19:15:20;;;;;;;4.93;3.60;;;14.50;51.80;;;;;;10429508;28;20324;-85
2023/05/10 19:20:23;;;;;;;8.90;4.53;;;14.40;54.30;;;;;;10425611;28;20646;-84
2023/05/10 19:25:28;;;;;;;13.07;4.00;;;14.20;56.80;;;;;;10407030;28;20238;-85
2023/05/10 19:30:30;;;;;;;4.07;3.43;;;14.10;57.50;;;;;;10434027;28;20678;-85
2023/05/10 19:35:33;;;;;;;9.63;5.13;;;13.80;59.30;;;;;;10435742;28;20257;-85
2023/05/10 19:40:37;;;;;;;17.63;4.87;;;;;;;;;;10400459;28;20325;-85
2023/05/10 19:45:39;;;;;;;7.27;4.40;;;13.60;64.30;;;;;;10432213;28;20280;-85
2023/05/10 19:50:42;;;;;;;3.73;3.40;;;13.60;66.10;;;;;;10423294;28;20627;-85
2023/05/10 19:55:45;;;;;;;5.23;4.07;;;13.50;72.90;;;;;;10417229;28;20251;-85
2023/05/10 20:00:47;;;;;;;8.00;4.73;;;13.40;69.60;;;;;;10415024;28;20259;-85
2023/05/10 20:05:51;;;;;;;6.23;3.20;;;13.30;70.40;;;;;;10407163;28;20243;-85
2023/05/10 20:10:57;;;;;;;5.83;4.63;;;13.20;76.60;;;;;;10430805;28;20392;-85
2023/05/10 20:16:01;;;;;;;5.10;3.90;;;13.20;76.30;;;;;;10437413;28;20794;-85
2023/05/10 20:21:03;;;;;;;9.63;5.80;;;13.10;78.60;;;;;;10443172;28;20310;-84
2023/05/10 20:26:06;;;;;;;8.40;5.63;;;13.10;76.10;;;;;;10446731;28;20308;-85
2023/05/10 20:31:09;;;;;;;8.30;6.10;;;13.20;78.70;;;;;;10415836;28;20837;-86
2023/05/10 20:36:11;;;;;;;9.43;5.87;;;13.40;75.00;;;;;;10369027;28;20251;-84
2023/05/10 20:41:14;;;;;;;6.47;4.63;;;13.40;68.00;;;;;;10409544;28;20263;-85
2023/05/10 20:46:16;;;;;;;6.77;4.17;;;13.50;70.50;;;;;;10411870;28;20361;-88
2023/05/10 20:51:19;;;;;;;4.60;3.53;;;13.50;68.60;;;;;;10449735;28;20672;-86
2023/05/10 20:56:22;;;;;;;7.53;5.70;;;13.60;75.50;;;;;;10424186;28;20336;-88
2023/05/10 21:01:25;;;;;;;4.63;4.23;;;13.60;71.80;;;;;;10414404;28;20326;-87
2023/05/10 21:06:27;;;;;;;9.30;5.27;;;13.60;69.50;;;;;;10427263;28;20289;-87
2023/05/10 21:11:34;;;;;;;7.30;3.93;;;13.60;71.00;;;;;;10409176;28;20251;-88
2023/05/10 21:16:37;;;;;;;5.57;4.83;;;13.60;74.00;;;;;;10422057;28;20711;-96
2023/05/10 21:21:40;;;;;;;4.83;4.27;;;13.50;64.50;;;;;;10429491;28;20229;-88
2023/05/10 21:26:42;;;;;;;7.03;4.20;;;13.50;64.80;;;;;;10425195;28;20306;-90
2023/05/10 21:31:45;;;;;;;4.60;4.00;;;13.40;66.30;;;;;;10432468;28;20273;-85
2023/05/10 21:36:48;;;;;;;8.47;5.03;;;13.30;71.80;;;;;;10406810;28;20935;-87
2023/05/10 21:41:51;;;;;;;8.23;4.93;;;13.20;67.70;;;;;;10402095;28;20313;-83
2023/05/10 21:46:53;;;;;;;5.97;4.90;;;13.00;71.40;;;;;;10405871;28;20226;-84
2023/05/10 21:51:56;;;;;;;4.30;3.60;;;12.90;70.50;;;;;;10397392;28;20304;-84
2023/05/10 21:56:58;;;;;;;5.73;4.27;;;13.00;78.70;;;;;;10406644;28;20293;-85
2023/05/10 22:02:01;;;;;;;6.00;4.20;;;12.90;76.40;;;;;;10405205;28;20305;-84
2023/05/10 22:07:03;;;;;;;7.73;4.13;;;12.70;74.20;;;;;;10407874;28;20219;-84
2023/05/10 22:12:07;;;;;;;9.60;6.43;;;12.60;77.70;;;;;;10384279;28;20627;-85
2023/05/10 22:17:09;;;;;;;9.90;6.00;;;12.30;66.80;;;;;;10407000;28;20319;-87
2023/05/10 22:22:12;;;;;;;9.17;5.97;;;11.30;69.60;;;;;;10422661;28;20234;-87
2023/05/10 22:27:15;;;;;;;9.53;4.80;;;11.40;79.70;;;;;;10409053;28;20235;-86
2023/05/10 22:32:17;;;;;;;6.90;5.03;;;11.60;85.10;;;;;;10437558;28;20586;-90
2023/05/10 22:37:20;;;;;;;9.93;6.00;;;11.80;89.50;;;;;;10406493;28;20309;-88
2023/05/10 22:42:22;;;;;;;6.83;4.90;;;12.00;80.70;;;;;;10406592;28;20329;-86
2023/05/10 22:47:25;;;;;;;8.47;5.63;;;12.20;89.40;;;;;;10403713;28;20231;-86
2023/05/10 22:52:27;;;;;;;5.93;5.03;;;12.50;77.70;;;;;;10405460;28;20239;-86
2023/05/10 22:57:30;;;;;;;4.50;3.63;;;12.50;82.50;;;;;;10408113;28;20297;-85
2023/05/10 23:02:33;;;;;;;7.27;4.77;;;12.60;88.10;;;;;;10410831;28;20297;-85
2023/05/10 23:07:36;;;;;;;5.07;3.50;;;12.50;77.80;;;;;;10413029;28;20261;-85
2023/05/10 23:12:38;;;;;;;5.30;3.80;;;12.70;87.80;;;;;;10396668;28;20251;-85
2023/05/10 23:17:40;;;;;;;10.70;6.10;;;12.70;78.80;;;;;;10412659;28;20251;-86
2023/05/10 23:22:43;;;;;;;6.07;4.17;;;12.70;68.80;;;;;;10411943;28;20199;-85
2023/05/10 23:27:46;;;;;;;9.47;4.77;;;12.70;75.70;;;;;;10412987;28;20227;-85
2023/05/10 23:32:49;;;;;;;10.30;6.20;;;12.80;72.80;;;;;;10422917;28;20227;-85
2023/05/10 23:37:51;;;;;;;8.33;4.80;;;12.80;67.20;;;;;;10412589;28;20277;-85
2023/05/10 23:42:54;;;;;;;11.20;5.57;;;12.80;72.90;;;;;;10413545;28;20313;-86
2023/05/10 23:47:57;;;;;;;8.43;5.40;;;12.80;71.40;;;;;;10412825;28;20227;-86
2023/05/10 23:52:59;;;;;;;7.50;3.90;;;12.80;63.10;;;;;;10411935;28;20239;-85
2023/05/10 23:58:02;;;;;;;13.07;4.90;;;12.70;72.70;;;;;;10412648;28;20655;-85
